Accueil
METAR-TAF:

METAR-TAF

Aéroports :

Aéroport de Vérone

Vérone, Italie

latitude: 45-23N, longitude: 010-52E, altitude: 67 m

Observation

Le bulletin a été fait il y a 37 minutes, à 21:50 UTC
Vent 2 kt de direction variable
Température 21°C
Humidité 73%
Pression 1013 hPa
Visibilité 10 km ou plus

METAR: LIPX 032150Z AUTO VRB02KT 9999 SCT140/// BKN200/// 21/16 Q1013

Heure: 00:27 (22:27 UTC)

Prévision

Le bulletin a été fait il y a 5 heures et 27 minutes, à 17:00 UTC
Prévision valable du 03 à 18 UTC au 04 à 18 UTC
Vent 5 kt de direction variable
Visibilité 10 km ou plus
Quelques nuages à une hauteur de 5000 ft
Temporairement
du 03 à 18 UTC au 03 à 21 UTC
orage, pluie
Evoluant progressivement
du 04 à 10 UTC au 04 à 12 UTC
Vent 10 kt de est/nord-est
Temporairement
du 04 à 12 UTC au 04 à 18 UTC
orage, pluie

TAF: LIPX 031700Z 0318/0418 VRB05KT 9999 FEW050 TEMPO 0318/0321 TSRA BECMG 0410/0412 06010KT TEMPO 0412/0418 TSRA

Observations et prévisions météorologiques de plus de 4000 aéroports (messages METAR et TAF).

Les stations disponibles sont représentées par des disques jaunes et rouges sur la carte.

Passer la souris dessus pour voir le nom de la station.

Cliquer dessus pour voir les observations et prévisions météorologiques.

Pour changer de carte: cliquez sur les boutons verts avec une croix noire pour zoomer, sur le bouton vert avec un tiret pour effectuer un zoom arrière, ou sur les flèches vertes pour les cartes adjacentes.


METAR-TAF: